Portada
METAR-TAF:

METAR-TAF

Aeroports :

Great Barrier Reef Airport

Illa de Hamilton, Austràlia

latitud: 20-21-29S, longitud: 148-57-06E, altitud: 5 m

Observació

L'informe es va fer fa 26 minuts, a les 09:00 UTC
Vent 21 kt del Sud-Est
Temperatura 22°C
Humitat 73%
Pressió 1018 hPa
Visibilitat 10 km o més
Núvols disperses a una alçada de 2900 ft
Núvols disperses a una alçada de 3500 ft

METAR: YBHM 240900Z AUTO 13021KT 9999 // SCT029 SCT035 22/17 Q1018

Hora: 19:26 (09:26 UTC)

Pronòstic

L'informe es va fer fa 4 hores i 31 minuts, a les 04:55 UTC
Pronòstic vàlid del 24 a les 06 UTC al 24 a les 18 UTC
Vent 20 kt del Est/Sud-Est
Visibilitat 10 km o més
Núvols disperses a una alçada de 3000 ft

TAF: YBHM 240455Z 2406/2418 12020KT 9999 SCT030

Observacions i pronòstics meteorològics de més de 4000 aeroports (METAR i TAF).

Les estacions disponibles són els punts grocs i vermells al mapa.

Posi el ratolí al punt desitjat per veure el nom de l'estació.

Feu clic per veure les observacions i els pronòstics meteorològics.

Per canviar el mapa: feu clic els botons verds amb una creu de color negre per apropar; al botó verd amb un guió per allunyar la imatge; o en les fletxes verdes per a mapes adjacents.


METAR-TAF: